Nearby METAR Reports

 

LELL - Sabadell, Spain
Distance from station: E 18km
Mise à jour: 22/06/2021 22:30
clair
clair
 Wind from ESE
Vent: ESE 7 km/h
Température: 28°C
Heat Index: 32°C
Point de rosée: 25°C
Humidité: 84%
Baromètre: 1015 hPa
Résumé: clair
Visibility: greater than 10 km
2021/06/22 20:30 LELL 222030Z AUTO 11004KT 070V140 CAVOK 28/25 Q1015
LEBL - Barcelona Airpor, Spain
Distance from station: SSE 33km
Mise à jour: 22/06/2021 22:30
partiellement nuageux
partiellement nuageux
 Wind from ESE
Vent: ESE 4 km/h
Température: 22°C
Point de rosée: 19°C
Humidité: 83%
Baromètre: 1015 hPa
Clouds: partiellement nuageux
Visibility: 10 km
Cloud details: Few Clouds 457 m
partiellement nuageux 610 m
2021/06/22 20:30 LEBL 222030Z 12002KT 9999 FEW015 SCT020 22/19 Q1015 NOSIG
LERS - Reus (civ/Mil), Spain
Distance from station: SO 75km
Mise à jour: 22/06/2021 22:30
Few Clouds
Few Clouds
 Wind from S
Vent: S 6 km/h
Température: 21°C
Point de rosée: 17°C
Humidité: 78%
Baromètre: 1015 hPa
Clouds: Few Clouds
Visibility: 10 km
Cloud details: Few Clouds 914 m
2021/06/22 20:30 LERS 222030Z 17003KT 9999 FEW030 21/17 Q1015
 
LEGE - Gerona/Costa Bra, Spain
Distance from station: ENE 83km
Mise à jour: 22/06/2021 22:30
clair
clair
 Wind from varies
Vent: varies 4 km/h
Température: 19°C
Point de rosée: 15°C
Humidité: 78%
Baromètre: 1015 hPa
Résumé: clair
Visibility: greater than 10 km
2021/06/22 20:30 LEGE 222030Z VRB02KT CAVOK 19/15 Q1015
LFMP - Perpignan/Rivesa, France
Distance from station: NNE 155km
Mise à jour: 22/06/2021 22:30
couvert
couvert
 Wind from NO
Vent: NO 26 km/h
Température: 22°C
Point de rosée: 12°C
Humidité: 53%
Baromètre: 1016 hPa
Clouds: couvert
Visibility: 10 km
Cloud details: nuageux 2012 m
couvert 2316 m
2021/06/22 20:30 LFMP 222030Z AUTO 31014KT 9999 BKN066 OVC076 22/12 Q1016 NOSIG
LFMK - Carcassonne/Salv, France
Distance from station: N 191km
Mise à jour: 22/06/2021 22:30
couvert
couvert
 Wind from O
Vent: O 7 km/h
Température: 18°C
Point de rosée: 15°C
Humidité: 83%
Baromètre: 1018 hPa
Clouds: couvert
Visibility: 10 km
Cloud details: couvert 2073 m
2021/06/22 20:30 LFMK 222030Z AUTO 26004KT 220V290 9999 OVC068 18/15 Q1018
 
LEHC - Huesca-Pirineos, Spain
Distance from station: ONO 193km
Mise à jour: 22/06/2021 22:30
clair
clair
 Wind from ONO
Vent: ONO 20 km/h
Température: 17°C
Point de rosée: 9°C
Humidité: 59%
Baromètre: 1016 hPa
Résumé: clair
Visibility: greater than 10 km
2021/06/22 20:30 LEHC 222030Z AUTO 29011KT 260V340 CAVOK 17/09 Q1016
LFMU - Beziers/Vias, France
Distance from station: NNE 232km
Mise à jour: 22/06/2021 22:30
clair
clair
 Wind from ONO
Vent: ONO 26 km/h
Température: 24°C
Point de rosée: 12°C
Humidité: 47%
Baromètre: 1015 hPa
Résumé: clair
Visibility: greater than 10 km
2021/06/22 20:30 LFMU 222030Z AUTO 29014KT CAVOK 24/12 Q1015 NOSIG
LEPA - Palma De Mallorc, Spain
Distance from station: SSE 233km
Mise à jour: 22/06/2021 22:30
Few Clouds
Few Clouds
 Wind from varies
Vent: varies 4 km/h
Température: 25°C
Point de rosée: 20°C
Humidité: 74%
Baromètre: 1014 hPa
Clouds: Few Clouds
Visibility: 10 km
Cloud details: Few Clouds 1219 m
2021/06/22 20:30 LEPA 222030Z VRB02KT 9999 FEW040 25/20 Q1014 NOSIG
 
LFBO - Toulouse/Blagnac, France
Distance from station: N 236km
Mise à jour: 22/06/2021 22:30
Thunderstorm
Thunderstorm
 Wind from OSO
Vent: OSO 9 km/h
Température: 18°C
Point de rosée: 15°C
Humidité: 83%
Baromètre: 1018 hPa
Clouds: Thunderstorm
Visibility: 10 km
Cloud details: nuageux 1494 m
nuageux 2865 m
nuageux 3353 m
2021/06/22 20:30 LFBO 222030Z AUTO 25005KT 180V280 9999 BKN049/// BKN094/// BKN110/// ///TCU 18/15 Q1018 TEMPO 4000 SHRA BECMG SCT035 BKN045
LFBT - Tarbes/Ossun, France
Distance from station: NO 239km
Mise à jour: 22/06/2021 22:30
nuageux
nuageux
 Wind from OSO
Vent: OSO 20 km/h
Température: 15°C
Point de rosée: 13°C
Humidité: 88%
Baromètre: 1019 hPa
Clouds: nuageux
Visibility: 10 km
Cloud details: partiellement nuageux 488 m
nuageux 701 m
nuageux 945 m
2021/06/22 20:30 LFBT 222030Z AUTO 24011KT 9999 SCT016 BKN023 BKN031 15/13 Q1019 NOSIG
LEZG - Zaragoza (mil/Ci, Spain
Distance from station: O 242km
Mise à jour: 22/06/2021 22:30
partiellement nuageux
partiellement nuageux
 Wind from ONO
Vent: ONO 31 km/h
Température: 19°C
Point de rosée: 13°C
Humidité: 68%
Baromètre: 1017 hPa
Clouds: partiellement nuageux
Visibility: 10 km
Cloud details: Few Clouds 1829 m
partiellement nuageux 2591 m
2021/06/22 20:30 LEZG 222030Z 29017KT 9999 FEW060TCU SCT085 19/13 Q1017